sensor_id;sensor_type;location;lat;lon;timestamp;pressure;altitude;pressure_sealevel;temperature;humidity
11041;BME280;5573;49.592;8.662;2022-08-16T00:00:53;99127.19;;;18.17;100.00
11041;BME280;5573;49.592;8.662;2022-08-16T00:03:43;99132.28;;;18.19;100.00
11041;BME280;5573;49.592;8.662;2022-08-16T00:06:31;99133.94;;;18.29;100.00
11041;BME280;5573;49.592;8.662;2022-08-16T00:09:22;99125.59;;;18.29;100.00
11041;BME280;5573;49.592;8.662;2022-08-16T00:12:10;99126.72;;;18.19;100.00
11041;BME280;5573;49.592;8.662;2022-08-16T00:15:08;99132.56;;;18.12;100.00
11041;BME280;5573;49.592;8.662;2022-08-16T00:18:03;99142.25;;;18.07;100.00
11041;BME280;5573;49.592;8.662;2022-08-16T00:20:57;99129.22;;;18.04;100.00
11041;BME280;5573;49.592;8.662;2022-08-16T00:23:45;99143.59;;;18.02;100.00
11041;BME280;5573;49.592;8.662;2022-08-16T00:26:33;99137.06;;;17.96;100.00
11041;BME280;5573;49.592;8.662;2022-08-16T00:29:31;99139.84;;;17.96;100.00
11041;BME280;5573;49.592;8.662;2022-08-16T00:32:20;99143.50;;;17.93;100.00
11041;BME280;5573;49.592;8.662;2022-08-16T00:35:14;99148.41;;;17.89;100.00
11041;BME280;5573;49.592;8.662;2022-08-16T00:38:05;99145.59;;;17.76;100.00
11041;BME280;5573;49.592;8.662;2022-08-16T00:41:14;99142.81;;;17.76;100.00
11041;BME280;5573;49.592;8.662;2022-08-16T00:44:04;99136.59;;;17.72;100.00
11041;BME280;5573;49.592;8.662;2022-08-16T00:47:01;99138.59;;;17.72;100.00
11041;BME280;5573;49.592;8.662;2022-08-16T00:49:52;99136.38;;;17.66;100.00
11041;BME280;5573;49.592;8.662;2022-08-16T00:52:42;99148.31;;;17.67;100.00
11041;BME280;5573;49.592;8.662;2022-08-16T00:55:40;99144.06;;;17.62;100.00
11041;BME280;5573;49.592;8.662;2022-08-16T00:58:32;99143.41;;;17.58;100.00
11041;BME280;5573;49.592;8.662;2022-08-16T01:01:22;99146.63;;;17.57;100.00
11041;BME280;5573;49.592;8.662;2022-08-16T01:04:12;99133.75;;;17.50;100.00
11041;BME280;5573;49.592;8.662;2022-08-16T01:07:16;99135.28;;;17.51;100.00
11041;BME280;5573;49.592;8.662;2022-08-16T01:10:05;99140.19;;;17.47;100.00
11041;BME280;5573;49.592;8.662;2022-08-16T01:13:07;99144.28;;;17.42;100.00
11041;BME280;5573;49.592;8.662;2022-08-16T01:16:00;99146.63;;;17.31;100.00
11041;BME280;5573;49.592;8.662;2022-08-16T01:18:58;99147.50;;;17.28;100.00
11041;BME280;5573;49.592;8.662;2022-08-16T01:21:53;99149.75;;;17.33;100.00
11041;BME280;5573;49.592;8.662;2022-08-16T01:25:09;99155.50;;;17.39;100.00
11041;BME280;5573;49.592;8.662;2022-08-16T01:28:00;99155.50;;;17.39;100.00
11041;BME280;5573;49.592;8.662;2022-08-16T01:30:55;99152.41;;;17.37;100.00
11041;BME280;5573;49.592;8.662;2022-08-16T01:33:44;99159.44;;;17.41;100.00
11041;BME280;5573;49.592;8.662;2022-08-16T01:36:36;99164.19;;;17.41;100.00
11041;BME280;5573;49.592;8.662;2022-08-16T01:39:24;99160.97;;;17.42;100.00
11041;BME280;5573;49.592;8.662;2022-08-16T01:42:14;99154.41;;;17.49;100.00
11041;BME280;5573;49.592;8.662;2022-08-16T01:45:06;99159.53;;;17.51;100.00
11041;BME280;5573;49.592;8.662;2022-08-16T01:47:54;99155.66;;;17.48;100.00
11041;BME280;5573;49.592;8.662;2022-08-16T01:50:46;99157.28;;;17.45;100.00
11041;BME280;5573;49.592;8.662;2022-08-16T01:53:56;99154.22;;;17.43;100.00
11041;BME280;5573;49.592;8.662;2022-08-16T01:56:49;99146.41;;;17.38;100.00
11041;BME280;5573;49.592;8.662;2022-08-16T01:59:40;99146.31;;;17.42;100.00
11041;BME280;5573;49.592;8.662;2022-08-16T02:02:33;99152.06;;;17.35;100.00
11041;BME280;5573;49.592;8.662;2022-08-16T02:05:28;99158.97;;;17.43;100.00
11041;BME280;5573;49.592;8.662;2022-08-16T02:08:20;99159.19;;;17.48;100.00
11041;BME280;5573;49.592;8.662;2022-08-16T02:11:19;99159.53;;;17.63;100.00
11041;BME280;5573;49.592;8.662;2022-08-16T02:14:08;99166.00;;;17.60;100.00
11041;BME280;5573;49.592;8.662;2022-08-16T02:17:10;99156.75;;;17.51;100.00
11041;BME280;5573;49.592;8.662;2022-08-16T02:20:03;99116.81;;;17.19;100.00
11041;BME280;5573;49.592;8.662;2022-08-16T02:22:59;99150.41;;;17.37;100.00
11041;BME280;5573;49.592;8.662;2022-08-16T02:25:51;99150.28;;;17.28;100.00
11041;BME280;5573;49.592;8.662;2022-08-16T02:28:43;99144.50;;;17.22;100.00
11041;BME280;5573;49.592;8.662;2022-08-16T02:31:33;99152.53;;;17.33;100.00
11041;BME280;5573;49.592;8.662;2022-08-16T02:34:44;99143.84;;;17.31;100.00
11041;BME280;5573;49.592;8.662;2022-08-16T02:37:36;99143.84;;;17.31;100.00
11041;BME280;5573;49.592;8.662;2022-08-16T02:40:40;99140.50;;;17.23;100.00
11041;BME280;5573;49.592;8.662;2022-08-16T02:43:31;99137.28;;;17.12;100.00
11041;BME280;5573;49.592;8.662;2022-08-16T02:46:22;99149.75;;;17.20;100.00
11041;BME280;5573;49.592;8.662;2022-08-16T02:49:20;99141.94;;;17.15;100.00
11041;BME280;5573;49.592;8.662;2022-08-16T02:52:30;99139.94;;;17.16;100.00
11041;BME280;5573;49.592;8.662;2022-08-16T02:55:24;99144.03;;;17.11;100.00
11041;BME280;5573;49.592;8.662;2022-08-16T02:58:28;99142.69;;;17.03;100.00
11041;BME280;5573;49.592;8.662;2022-08-16T03:01:21;99101.56;;;16.85;100.00
11041;BME280;5573;49.592;8.662;2022-08-16T03:04:32;99141.91;;;17.02;100.00
11041;BME280;5573;49.592;8.662;2022-08-16T03:07:41;99144.94;;;17.08;100.00
11041;BME280;5573;49.592;8.662;2022-08-16T03:10:38;99147.25;;;17.10;100.00
11041;BME280;5573;49.592;8.662;2022-08-16T03:13:26;99147.94;;;17.14;100.00
11041;BME280;5573;49.592;8.662;2022-08-16T03:16:16;99138.28;;;17.18;100.00
11041;BME280;5573;49.592;8.662;2022-08-16T03:19:24;99146.72;;;17.27;100.00
11041;BME280;5573;49.592;8.662;2022-08-16T03:22:33;99134.94;;;17.23;100.00
11041;BME280;5573;49.592;8.662;2022-08-16T03:25:27;99131.81;;;17.21;100.00
11041;BME280;5573;49.592;8.662;2022-08-16T03:28:31;99133.28;;;17.26;100.00
11041;BME280;5573;49.592;8.662;2022-08-16T03:31:19;99131.72;;;17.25;100.00
11041;BME280;5573;49.592;8.662;2022-08-16T03:34:08;99140.41;;;17.14;100.00
11041;BME280;5573;49.592;8.662;2022-08-16T03:36:59;99146.16;;;17.20;100.00
11041;BME280;5573;49.592;8.662;2022-08-16T03:39:48;99135.16;;;17.16;100.00
11041;BME280;5573;49.592;8.662;2022-08-16T03:42:46;99134.72;;;17.18;100.00
11041;BME280;5573;49.592;8.662;2022-08-16T03:45:55;99131.56;;;17.03;100.00
11041;BME280;5573;49.592;8.662;2022-08-16T03:48:48;99131.56;;;17.03;100.00
11041;BME280;5573;49.592;8.662;2022-08-16T03:51:39;99086.22;;;16.80;100.00
11041;BME280;5573;49.592;8.662;2022-08-16T03:54:31;99131.16;;;17.17;100.00
11041;BME280;5573;49.592;8.662;2022-08-16T03:57:22;99131.16;;;17.17;100.00
11041;BME280;5573;49.592;8.662;2022-08-16T04:00:22;99134.94;;;17.23;100.00
11041;BME280;5573;49.592;8.662;2022-08-16T04:03:32;99135.63;;;17.27;100.00
11041;BME280;5573;49.592;8.662;2022-08-16T04:06:22;99130.16;;;17.24;100.00
11041;BME280;5573;49.592;8.662;2022-08-16T04:09:10;99141.06;;;17.18;100.00
11041;BME280;5573;49.592;8.662;2022-08-16T04:11:59;99136.59;;;17.08;100.00
11041;BME280;5573;49.592;8.662;2022-08-16T04:14:48;99141.91;;;17.02;100.00
11041;BME280;5573;49.592;8.662;2022-08-16T04:17:39;99140.47;;;16.98;100.00
11041;BME280;5573;49.592;8.662;2022-08-16T04:20:28;99133.00;;;16.95;100.00
11041;BME280;5573;49.592;8.662;2022-08-16T04:23:24;99138.22;;;16.93;100.00
11041;BME280;5573;49.592;8.662;2022-08-16T04:26:15;99140.78;;;16.87;100.00
11041;BME280;5573;49.592;8.662;2022-08-16T04:29:05;99140.88;;;16.83;100.00
11041;BME280;5573;49.592;8.662;2022-08-16T04:32:07;99140.59;;;16.78;100.00
11041;BME280;5573;49.592;8.662;2022-08-16T04:34:58;99140.25;;;16.76;100.00
11041;BME280;5573;49.592;8.662;2022-08-16T04:37:54;99145.38;;;16.77;100.00
11041;BME280;5573;49.592;8.662;2022-08-16T04:40:46;99151.28;;;16.79;100.00
11041;BME280;5573;49.592;8.662;2022-08-16T04:43:37;99152.41;;;16.82;100.00
11041;BME280;5573;49.592;8.662;2022-08-16T04:46:31;99152.22;;;16.89;100.00
11041;BME280;5573;49.592;8.662;2022-08-16T04:49:40;99155.47;;;17.00;100.00
11041;BME280;5573;49.592;8.662;2022-08-16T04:52:36;99158.03;;;17.07;100.00
11041;BME280;5573;49.592;8.662;2022-08-16T04:55:26;99157.75;;;17.18;100.00
11041;BME280;5573;49.592;8.662;2022-08-16T04:58:24;99163.31;;;17.31;100.00
11041;BME280;5573;49.592;8.662;2022-08-16T05:01:34;99164.44;;;17.46;100.00
11041;BME280;5573;49.592;8.662;2022-08-16T05:04:42;99165.00;;;17.54;100.00
11041;BME280;5573;49.592;8.662;2022-08-16T05:07:31;99165.00;;;17.67;100.00
11041;BME280;5573;49.592;8.662;2022-08-16T05:10:24;99166.66;;;17.77;100.00
11041;BME280;5573;49.592;8.662;2022-08-16T05:13:12;99158.00;;;17.88;100.00
11041;BME280;5573;49.592;8.662;2022-08-16T05:16:02;99158.06;;;17.97;100.00
11041;BME280;5573;49.592;8.662;2022-08-16T05:18:54;99164.97;;;18.05;100.00
11041;BME280;5573;49.592;8.662;2022-08-16T05:21:45;99165.38;;;18.17;100.00
11041;BME280;5573;49.592;8.662;2022-08-16T05:24:37;99176.03;;;18.31;100.00
11041;BME280;5573;49.592;8.662;2022-08-16T05:27:31;99170.53;;;18.40;100.00
11041;BME280;5573;49.592;8.662;2022-08-16T05:30:30;99169.59;;;18.56;100.00
11041;BME280;5573;49.592;8.662;2022-08-16T05:33:24;99178.88;;;18.75;100.00
11041;BME280;5573;49.592;8.662;2022-08-16T05:36:15;99185.34;;;18.85;100.00
11041;BME280;5573;49.592;8.662;2022-08-16T05:39:09;99196.09;;;18.96;100.00
11041;BME280;5573;49.592;8.662;2022-08-16T05:41:58;99188.75;;;19.11;100.00
11041;BME280;5573;49.592;8.662;2022-08-16T05:44:48;99195.66;;;19.28;100.00
11041;BME280;5573;49.592;8.662;2022-08-16T05:47:37;99117.34;;;18.82;100.00
11041;BME280;5573;49.592;8.662;2022-08-16T05:50:29;99198.53;;;19.47;100.00
11041;BME280;5573;49.592;8.662;2022-08-16T05:53:21;99189.22;;;19.41;100.00
11041;BME280;5573;49.592;8.662;2022-08-16T05:56:36;99207.25;;;19.58;100.00
11041;BME280;5573;49.592;8.662;2022-08-16T05:59:26;99203.75;;;19.67;100.00
11041;BME280;5573;49.592;8.662;2022-08-16T06:02:17;99207.59;;;19.92;100.00
11041;BME280;5573;49.592;8.662;2022-08-16T06:05:16;99204.66;;;20.04;100.00
11041;BME280;5573;49.592;8.662;2022-08-16T06:08:04;99202.38;;;20.21;100.00
11041;BME280;5573;49.592;8.662;2022-08-16T06:10:59;99202.69;;;20.14;100.00
11041;BME280;5573;49.592;8.662;2022-08-16T06:13:57;99212.66;;;20.24;100.00
11041;BME280;5573;49.592;8.662;2022-08-16T06:16:54;99196.34;;;20.14;100.00
11041;BME280;5573;49.592;8.662;2022-08-16T06:19:52;99218.38;;;20.30;100.00
11041;BME280;5573;49.592;8.662;2022-08-16T06:22:42;99217.00;;;20.35;100.00
11041;BME280;5573;49.592;8.662;2022-08-16T06:25:46;99207.09;;;20.43;100.00
11041;BME280;5573;49.592;8.662;2022-08-16T06:28:42;99126.81;;;20.06;100.00
11041;BME280;5573;49.592;8.662;2022-08-16T06:31:36;99215.34;;;20.65;100.00
11041;BME280;5573;49.592;8.662;2022-08-16T06:34:36;99214.09;;;20.66;100.00
11041;BME280;5573;49.592;8.662;2022-08-16T06:37:45;99219.84;;;20.90;100.00
11041;BME280;5573;49.592;8.662;2022-08-16T06:40:38;99210.69;;;20.99;100.00
11041;BME280;5573;49.592;8.662;2022-08-16T06:43:36;99207.09;;;21.07;100.00
11041;BME280;5573;49.592;8.662;2022-08-16T06:46:30;99206.00;;;21.05;100.00
11041;BME280;5573;49.592;8.662;2022-08-16T06:49:27;99224.31;;;21.06;100.00
11041;BME280;5573;49.592;8.662;2022-08-16T06:52:17;99224.78;;;21.14;100.00
11041;BME280;5573;49.592;8.662;2022-08-16T06:55:28;99232.09;;;21.20;100.00
11041;BME280;5573;49.592;8.662;2022-08-16T06:58:23;99223.66;;;21.39;100.00
11041;BME280;5573;49.592;8.662;2022-08-16T07:01:27;99227.38;;;21.54;100.00
11041;BME280;5573;49.592;8.662;2022-08-16T07:04:34;99234.94;;;21.72;98.94
11041;BME280;5573;49.592;8.662;2022-08-16T07:07:39;99226.94;;;21.89;95.96
11041;BME280;5573;49.592;8.662;2022-08-16T07:10:30;99233.22;;;22.08;93.12
11041;BME280;5573;49.592;8.662;2022-08-16T07:13:19;99239.75;;;22.38;90.87
11041;BME280;5573;49.592;8.662;2022-08-16T07:16:28;99212.50;;;22.39;89.04
11041;BME280;5573;49.592;8.662;2022-08-16T07:19:17;99235.72;;;22.78;87.26
11041;BME280;5573;49.592;8.662;2022-08-16T07:22:06;99245.88;;;23.14;85.05
11041;BME280;5573;49.592;8.662;2022-08-16T07:25:14;99232.34;;;23.43;81.03
11041;BME280;5573;49.592;8.662;2022-08-16T07:28:05;99232.25;;;23.52;79.21
11041;BME280;5573;49.592;8.662;2022-08-16T07:31:06;99237.97;;;23.28;82.20
11041;BME280;5573;49.592;8.662;2022-08-16T07:34:02;99248.31;;;23.37;83.23
11041;BME280;5573;49.592;8.662;2022-08-16T07:36:56;99250.22;;;23.75;77.71
11041;BME280;5573;49.592;8.662;2022-08-16T07:39:56;99239.41;;;23.83;78.05
11041;BME280;5573;49.592;8.662;2022-08-16T07:42:45;99242.97;;;23.68;79.36
11041;BME280;5573;49.592;8.662;2022-08-16T07:45:36;99235.16;;;23.58;79.40
11041;BME280;5573;49.592;8.662;2022-08-16T07:48:24;99248.13;;;23.55;78.95
11041;BME280;5573;49.592;8.662;2022-08-16T07:51:15;99238.25;;;23.30;81.49
11041;BME280;5573;49.592;8.662;2022-08-16T07:54:06;99230.28;;;23.73;78.48
11041;BME280;5573;49.592;8.662;2022-08-16T07:57:00;99232.81;;;23.86;77.68
11041;BME280;5573;49.592;8.662;2022-08-16T07:59:50;99238.41;;;24.01;76.33
11041;BME280;5573;49.592;8.662;2022-08-16T08:02:40;99242.78;;;24.22;74.85
11041;BME280;5573;49.592;8.662;2022-08-16T08:05:36;99234.75;;;23.80;78.45
11041;BME280;5573;49.592;8.662;2022-08-16T08:08:29;99229.44;;;23.67;79.89
11041;BME280;5573;49.592;8.662;2022-08-16T08:11:37;99237.06;;;23.96;77.33
11041;BME280;5573;49.592;8.662;2022-08-16T08:14:28;99249.28;;;23.93;77.01
11041;BME280;5573;49.592;8.662;2022-08-16T08:17:19;99253.88;;;24.11;77.00
11041;BME280;5573;49.592;8.662;2022-08-16T08:20:13;99253.81;;;24.26;74.31
11041;BME280;5573;49.592;8.662;2022-08-16T08:23:14;99254.00;;;24.37;73.95
11041;BME280;5573;49.592;8.662;2022-08-16T08:26:07;99253.63;;;24.65;73.95
11041;BME280;5573;49.592;8.662;2022-08-16T08:29:03;99263.00;;;24.62;74.11
11041;BME280;5573;49.592;8.662;2022-08-16T08:31:55;99262.16;;;24.55;73.03
11041;BME280;5573;49.592;8.662;2022-08-16T08:34:44;99272.25;;;24.27;76.84
11041;BME280;5573;49.592;8.662;2022-08-16T08:37:35;99270.41;;;24.24;78.54
11041;BME280;5573;49.592;8.662;2022-08-16T08:40:44;99268.50;;;24.50;73.79
11041;BME280;5573;49.592;8.662;2022-08-16T08:43:32;99263.94;;;24.73;71.56
11041;BME280;5573;49.592;8.662;2022-08-16T08:46:28;99262.16;;;24.55;71.49
11041;BME280;5573;49.592;8.662;2022-08-16T08:49:22;99273.25;;;24.44;73.67
11041;BME280;5573;49.592;8.662;2022-08-16T08:52:30;99266.88;;;24.85;71.56
11041;BME280;5573;49.592;8.662;2022-08-16T08:55:26;99264.84;;;25.58;69.57
11041;BME280;5573;49.592;8.662;2022-08-16T08:58:17;99275.50;;;25.48;66.27
11041;BME280;5573;49.592;8.662;2022-08-16T09:01:21;99279.31;;;24.99;70.91
11041;BME280;5573;49.592;8.662;2022-08-16T09:04:22;99264.66;;;25.67;66.63
11041;BME280;5573;49.592;8.662;2022-08-16T09:07:10;99279.13;;;25.81;67.15
11041;BME280;5573;49.592;8.662;2022-08-16T09:09:59;99241.72;;;26.17;61.58
11041;BME280;5573;49.592;8.662;2022-08-16T09:13:07;99272.88;;;26.40;61.42
11041;BME280;5573;49.592;8.662;2022-08-16T09:16:03;99281.06;;;26.38;60.65
11041;BME280;5573;49.592;8.662;2022-08-16T09:18:52;99283.44;;;26.51;58.27
11041;BME280;5573;49.592;8.662;2022-08-16T09:21:48;99276.09;;;26.65;56.31
11041;BME280;5573;49.592;8.662;2022-08-16T09:24:42;99271.78;;;26.75;57.13
11041;BME280;5573;49.592;8.662;2022-08-16T09:27:42;99282.34;;;26.91;57.29
11041;BME280;5573;49.592;8.662;2022-08-16T09:30:45;99273.88;;;26.86;56.34
11041;BME280;5573;49.592;8.662;2022-08-16T09:33:33;99274.41;;;26.84;57.27
11041;BME280;5573;49.592;8.662;2022-08-16T09:36:25;99270.00;;;26.83;54.76
11041;BME280;5573;49.592;8.662;2022-08-16T09:39:18;99276.56;;;27.23;55.05
11041;BME280;5573;49.592;8.662;2022-08-16T09:42:07;99264.06;;;27.58;53.57
11041;BME280;5573;49.592;8.662;2022-08-16T09:44:56;99265.84;;;27.72;52.39
11041;BME280;5573;49.592;8.662;2022-08-16T09:48:06;99271.50;;;27.50;52.43
11041;BME280;5573;49.592;8.662;2022-08-16T09:50:54;99275.97;;;26.96;53.04
11041;BME280;5573;49.592;8.662;2022-08-16T09:53:43;99265.69;;;26.33;54.46
11041;BME280;5573;49.592;8.662;2022-08-16T09:56:40;99261.88;;;26.48;54.16
11041;BME280;5573;49.592;8.662;2022-08-16T09:59:40;99259.25;;;26.87;53.71
11041;BME280;5573;49.592;8.662;2022-08-16T10:02:28;99270.91;;;27.17;53.07
11041;BME280;5573;49.592;8.662;2022-08-16T10:05:18;99258.16;;;27.73;51.08
11041;BME280;5573;49.592;8.662;2022-08-16T10:08:07;99268.41;;;27.59;50.85
11041;BME280;5573;49.592;8.662;2022-08-16T10:11:13;99263.50;;;27.76;50.31
11041;BME280;5573;49.592;8.662;2022-08-16T10:14:35;99259.94;;;27.93;49.31
11041;BME280;5573;49.592;8.662;2022-08-16T10:17:24;99253.50;;;27.58;48.84
11041;BME280;5573;49.592;8.662;2022-08-16T10:20:12;99254.56;;;27.55;49.61
11041;BME280;5573;49.592;8.662;2022-08-16T10:23:10;99266.59;;;27.50;49.99
11041;BME280;5573;49.592;8.662;2022-08-16T10:26:03;99258.91;;;27.73;48.87
11041;BME280;5573;49.592;8.662;2022-08-16T10:29:12;99257.03;;;27.14;49.51
11041;BME280;5573;49.592;8.662;2022-08-16T10:32:06;99258.28;;;27.02;50.12
11041;BME280;5573;49.592;8.662;2022-08-16T10:34:55;99248.38;;;27.51;49.58
11041;BME280;5573;49.592;8.662;2022-08-16T10:37:43;99258.91;;;27.85;49.44
11041;BME280;5573;49.592;8.662;2022-08-16T10:40:33;99255.56;;;28.03;48.45
11041;BME280;5573;49.592;8.662;2022-08-16T10:43:23;99249.31;;;28.44;47.18
11041;BME280;5573;49.592;8.662;2022-08-16T10:46:17;99247.25;;;28.45;47.38
11041;BME280;5573;49.592;8.662;2022-08-16T10:49:25;99253.16;;;28.52;46.57
11041;BME280;5573;49.592;8.662;2022-08-16T10:52:14;99248.47;;;28.66;46.36
11041;BME280;5573;49.592;8.662;2022-08-16T10:55:06;99248.25;;;28.47;45.21
11041;BME280;5573;49.592;8.662;2022-08-16T10:58:19;99243.47;;;28.89;44.81
11041;BME280;5573;49.592;8.662;2022-08-16T11:01:20;99248.88;;;28.87;44.40
11041;BME280;5573;49.592;8.662;2022-08-16T11:04:28;99251.78;;;29.23;43.47
11041;BME280;5573;49.592;8.662;2022-08-16T11:07:37;99239.53;;;29.45;43.07
11041;BME280;5573;49.592;8.662;2022-08-16T11:10:32;99250.28;;;29.88;42.33
11041;BME280;5573;49.592;8.662;2022-08-16T11:13:41;99251.97;;;29.72;42.63
11041;BME280;5573;49.592;8.662;2022-08-16T11:16:51;99261.78;;;29.71;43.08
11041;BME280;5573;49.592;8.662;2022-08-16T11:19:55;99265.97;;;29.89;42.56
11041;BME280;5573;49.592;8.662;2022-08-16T11:23:03;99269.03;;;29.61;42.11
11041;BME280;5573;49.592;8.662;2022-08-16T11:25:52;99261.59;;;29.58;42.28
11041;BME280;5573;49.592;8.662;2022-08-16T11:29:02;99258.94;;;29.66;41.73
11041;BME280;5573;49.592;8.662;2022-08-16T11:32:05;99263.53;;;29.74;42.06
11041;BME280;5573;49.592;8.662;2022-08-16T11:34:57;99254.63;;;29.59;43.23
11041;BME280;5573;49.592;8.662;2022-08-16T11:38:00;99254.75;;;29.78;43.05
11041;BME280;5573;49.592;8.662;2022-08-16T11:41:08;99245.34;;;29.94;42.57
11041;BME280;5573;49.592;8.662;2022-08-16T11:43:56;99250.94;;;30.00;41.70
11041;BME280;5573;49.592;8.662;2022-08-16T11:46:46;99259.91;;;30.04;41.70
11041;BME280;5573;49.592;8.662;2022-08-16T11:49:34;99248.56;;;30.04;41.27
11041;BME280;5573;49.592;8.662;2022-08-16T11:52:22;99250.72;;;29.98;41.30
11041;BME280;5573;49.592;8.662;2022-08-16T11:55:13;99248.09;;;30.00;41.54
11041;BME280;5573;49.592;8.662;2022-08-16T11:58:02;99260.56;;;29.91;41.46
11041;BME280;5573;49.592;8.662;2022-08-16T12:00:51;99244.50;;;29.75;41.68
11041;BME280;5573;49.592;8.662;2022-08-16T12:03:42;99238.25;;;30.07;41.07
11041;BME280;5573;49.592;8.662;2022-08-16T12:06:30;99238.19;;;29.88;41.32
11041;BME280;5573;49.592;8.662;2022-08-16T12:09:20;99242.81;;;29.85;40.83
11041;BME280;5573;49.592;8.662;2022-08-16T12:12:10;99242.97;;;30.23;41.44
11041;BME280;5573;49.592;8.662;2022-08-16T12:14:58;99241.34;;;30.33;40.18
11041;BME280;5573;49.592;8.662;2022-08-16T12:17:47;99241.91;;;30.26;38.76
11041;BME280;5573;49.592;8.662;2022-08-16T12:20:40;99243.19;;;30.31;39.40
11041;BME280;5573;49.592;8.662;2022-08-16T12:23:31;99232.84;;;30.52;39.30
11041;BME280;5573;49.592;8.662;2022-08-16T12:26:19;99235.19;;;30.29;39.69
11041;BME280;5573;49.592;8.662;2022-08-16T12:29:09;99226.59;;;30.59;39.89
11041;BME280;5573;49.592;8.662;2022-08-16T12:31:58;99233.25;;;30.62;39.09
11041;BME280;5573;49.592;8.662;2022-08-16T12:35:08;99239.13;;;30.20;39.88
11041;BME280;5573;49.592;8.662;2022-08-16T12:37:59;99234.66;;;30.31;39.07
11041;BME280;5573;49.592;8.662;2022-08-16T12:41:08;99233.13;;;30.30;39.69
11041;BME280;5573;49.592;8.662;2022-08-16T12:43:57;99226.19;;;30.69;39.07
11041;BME280;5573;49.592;8.662;2022-08-16T12:46:47;99228.66;;;30.78;38.76
11041;BME280;5573;49.592;8.662;2022-08-16T12:49:56;99222.81;;;30.51;38.70
11041;BME280;5573;49.592;8.662;2022-08-16T12:52:43;99225.28;;;29.87;39.95
11041;BME280;5573;49.592;8.662;2022-08-16T12:55:40;99213.19;;;28.73;41.40
11041;BME280;5573;49.592;8.662;2022-08-16T12:58:30;99203.91;;;29.25;41.43
11041;BME280;5573;49.592;8.662;2022-08-16T13:01:36;99218.44;;;30.01;39.62
11041;BME280;5573;49.592;8.662;2022-08-16T13:04:26;99214.81;;;30.31;39.07
11041;BME280;5573;49.592;8.662;2022-08-16T13:07:19;99218.69;;;30.71;38.39
11041;BME280;5573;49.592;8.662;2022-08-16T13:10:13;99209.34;;;30.95;37.94
11041;BME280;5573;49.592;8.662;2022-08-16T13:13:24;99207.50;;;31.17;37.38
11041;BME280;5573;49.592;8.662;2022-08-16T13:16:15;99210.06;;;31.02;37.25
11041;BME280;5573;49.592;8.662;2022-08-16T13:19:10;99198.81;;;29.78;38.73
11041;BME280;5573;49.592;8.662;2022-08-16T13:21:58;99195.94;;;30.09;38.89
11041;BME280;5573;49.592;8.662;2022-08-16T13:24:47;99203.41;;;30.55;37.54
11041;BME280;5573;49.592;8.662;2022-08-16T13:27:37;99190.50;;;30.54;37.07
11041;BME280;5573;49.592;8.662;2022-08-16T13:30:48;99201.84;;;30.98;37.08
11041;BME280;5573;49.592;8.662;2022-08-16T13:33:37;99196.81;;;31.23;37.20
11041;BME280;5573;49.592;8.662;2022-08-16T13:36:25;99195.78;;;31.39;36.61
11041;BME280;5573;49.592;8.662;2022-08-16T13:39:34;99195.16;;;30.95;37.16
11041;BME280;5573;49.592;8.662;2022-08-16T13:42:26;99196.06;;;30.85;37.26
11041;BME280;5573;49.592;8.662;2022-08-16T13:45:15;99173.69;;;31.13;37.19
11041;BME280;5573;49.592;8.662;2022-08-16T13:48:07;99189.50;;;31.28;37.37
11041;BME280;5573;49.592;8.662;2022-08-16T13:51:07;99198.50;;;31.77;36.21
11041;BME280;5573;49.592;8.662;2022-08-16T13:54:02;99193.69;;;31.72;36.29
11041;BME280;5573;49.592;8.662;2022-08-16T13:56:51;99196.44;;;31.91;36.05
11041;BME280;5573;49.592;8.662;2022-08-16T13:59:40;99190.75;;;31.13;36.33
11041;BME280;5573;49.592;8.662;2022-08-16T14:02:31;99188.22;;;30.09;38.09
11041;BME280;5573;49.592;8.662;2022-08-16T14:05:20;99187.13;;;30.12;38.57
11041;BME280;5573;49.592;8.662;2022-08-16T14:08:09;99182.28;;;29.83;39.57
11041;BME280;5573;49.592;8.662;2022-08-16T14:10:57;99176.75;;;29.71;39.83
11041;BME280;5573;49.592;8.662;2022-08-16T14:13:45;99178.31;;;30.16;37.69
11041;BME280;5573;49.592;8.662;2022-08-16T14:16:33;99176.09;;;30.52;37.69
11041;BME280;5573;49.592;8.662;2022-08-16T14:19:22;99171.50;;;30.49;37.00
11041;BME280;5573;49.592;8.662;2022-08-16T14:22:16;99146.75;;;30.25;37.18
11041;BME280;5573;49.592;8.662;2022-08-16T14:25:24;99167.03;;;30.35;38.22
11041;BME280;5573;49.592;8.662;2022-08-16T14:28:14;99170.81;;;30.43;37.90
11041;BME280;5573;49.592;8.662;2022-08-16T14:31:02;99173.88;;;29.77;39.01
11041;BME280;5573;49.592;8.662;2022-08-16T14:33:50;99161.66;;;29.27;39.43
11041;BME280;5573;49.592;8.662;2022-08-16T14:36:39;99160.31;;;29.34;39.33
11041;BME280;5573;49.592;8.662;2022-08-16T14:39:29;99152.28;;;29.93;37.95
11041;BME280;5573;49.592;8.662;2022-08-16T14:42:20;99155.16;;;30.36;38.09
11041;BME280;5573;49.592;8.662;2022-08-16T14:45:11;99160.28;;;30.76;36.92
11041;BME280;5573;49.592;8.662;2022-08-16T14:48:00;99157.00;;;30.34;37.03
11041;BME280;5573;49.592;8.662;2022-08-16T14:50:48;99162.53;;;30.45;37.46
11041;BME280;5573;49.592;8.662;2022-08-16T14:53:36;99163.84;;;30.19;37.23
11041;BME280;5573;49.592;8.662;2022-08-16T14:56:32;99159.75;;;29.96;37.56
11041;BME280;5573;49.592;8.662;2022-08-16T14:59:29;99156.63;;;29.69;38.31
11041;BME280;5573;49.592;8.662;2022-08-16T15:02:23;99159.22;;;29.67;38.30
11041;BME280;5573;49.592;8.662;2022-08-16T15:05:23;99165.88;;;29.45;38.31
11041;BME280;5573;49.592;8.662;2022-08-16T15:08:14;99162.50;;;29.16;38.72
11041;BME280;5573;49.592;8.662;2022-08-16T15:11:06;99156.78;;;28.86;39.63
11041;BME280;5573;49.592;8.662;2022-08-16T15:13:55;99156.34;;;28.71;39.25
11041;BME280;5573;49.592;8.662;2022-08-16T15:16:44;99160.75;;;28.66;40.79
11041;BME280;5573;49.592;8.662;2022-08-16T15:19:32;99158.97;;;28.63;40.64
11041;BME280;5573;49.592;8.662;2022-08-16T15:22:26;99149.94;;;28.70;40.29
11041;BME280;5573;49.592;8.662;2022-08-16T15:25:19;99152.75;;;28.70;40.31
11041;BME280;5573;49.592;8.662;2022-08-16T15:28:13;99139.38;;;28.71;40.79
11041;BME280;5573;49.592;8.662;2022-08-16T15:31:19;99132.78;;;28.57;39.93